createdAt,value
2023-04-22T00:02:14.734Z,99.90
2023-04-22T00:04:46.706Z,99.90
2023-04-22T00:07:15.242Z,99.90
2023-04-22T00:09:43.669Z,99.90
2023-04-22T00:12:12.379Z,99.90
2023-04-22T00:14:40.632Z,99.90
2023-04-22T00:17:09.999Z,99.90
2023-04-22T00:19:39.293Z,99.90
2023-04-22T00:22:10.048Z,99.90
2023-04-22T00:24:38.034Z,99.90
2023-04-22T00:27:06.274Z,99.90
2023-04-22T00:29:39.575Z,99.90
2023-04-22T00:32:07.903Z,99.90
2023-04-22T00:34:37.504Z,99.90
2023-04-22T00:37:07.674Z,99.90
2023-04-22T00:39:39.247Z,99.90
2023-04-22T00:42:10.096Z,99.90
2023-04-22T00:44:38.084Z,99.90
2023-04-22T00:47:06.282Z,99.90
2023-04-22T00:49:37.439Z,99.90
2023-04-22T00:52:07.287Z,99.90
2023-04-22T00:54:36.458Z,99.90
2023-04-22T00:57:05.113Z,99.90
2023-04-22T00:59:33.184Z,99.90
2023-04-22T01:02:03.988Z,99.90
2023-04-22T01:04:32.377Z,99.90
2023-04-22T01:07:06.597Z,99.90
2023-04-22T01:09:35.991Z,99.90
2023-04-22T01:12:07.072Z,99.90
2023-04-22T01:14:41.562Z,99.90
2023-04-22T01:17:10.652Z,99.90
2023-04-22T01:19:38.929Z,99.90
2023-04-22T01:22:07.612Z,99.90
2023-04-22T01:24:38.732Z,99.90
2023-04-22T01:27:06.888Z,99.90
2023-04-22T01:29:35.051Z,99.90
2023-04-22T01:32:06.201Z,99.90
2023-04-22T01:34:34.929Z,99.90
2023-04-22T01:37:02.944Z,99.90
2023-04-22T01:39:31.320Z,99.90
2023-04-22T01:42:02.886Z,99.90
2023-04-22T01:44:30.903Z,99.90
2023-04-22T01:46:58.909Z,99.90
2023-04-22T01:49:26.894Z,99.90
2023-04-22T01:51:55.256Z,99.90
2023-04-22T01:54:23.321Z,99.90
2023-04-22T01:56:51.950Z,99.90
2023-04-22T01:59:23.425Z,99.90
2023-04-22T02:01:53.170Z,99.90
2023-04-22T02:04:21.920Z,99.90
2023-04-22T02:06:52.896Z,99.90
2023-04-22T02:09:21.013Z,99.90
2023-04-22T02:11:49.062Z,99.90
2023-04-22T02:14:17.096Z,99.90
2023-04-22T02:16:49.052Z,99.90
2023-04-22T02:19:17.136Z,99.90
2023-04-22T02:21:47.486Z,99.90
2023-04-22T02:24:15.551Z,99.90
2023-04-22T02:26:43.813Z,99.90
2023-04-22T02:29:14.269Z,99.90
2023-04-22T02:31:42.442Z,99.90
2023-04-22T02:34:13.104Z,99.90
2023-04-22T02:36:41.160Z,99.90
2023-04-22T02:39:09.252Z,99.90
2023-04-22T02:41:37.241Z,99.90
2023-04-22T02:44:07.304Z,99.90
2023-04-22T02:46:35.374Z,99.90
2023-04-22T02:49:03.587Z,99.90
2023-04-22T02:51:33.950Z,99.90
2023-04-22T02:54:04.866Z,99.90
2023-04-22T02:56:36.927Z,99.90
2023-04-22T02:59:04.913Z,99.90
2023-04-22T03:01:34.391Z,99.90
2023-04-22T03:04:02.949Z,99.90
2023-04-22T03:06:32.384Z,99.90
2023-04-22T03:09:04.414Z,99.90
2023-04-22T03:11:32.456Z,99.90
2023-04-22T03:14:02.096Z,99.90
2023-04-22T03:16:30.151Z,99.90
2023-04-22T03:18:58.200Z,99.90
2023-04-22T03:21:26.602Z,99.90
2023-04-22T03:23:56.766Z,99.90
2023-04-22T03:26:26.234Z,99.90
2023-04-22T03:28:54.176Z,99.90
2023-04-22T03:31:23.490Z,99.90
2023-04-22T03:33:51.461Z,99.90
2023-04-22T03:36:19.493Z,99.90
2023-04-22T03:38:47.489Z,99.90
2023-04-22T03:41:15.555Z,99.90
2023-04-22T03:43:44.968Z,99.90
2023-04-22T03:46:13.020Z,99.90
2023-04-22T03:48:41.096Z,99.90
2023-04-22T03:51:09.087Z,99.90
2023-04-22T03:53:37.081Z,99.90
2023-04-22T03:56:05.337Z,99.90
2023-04-22T03:58:36.862Z,99.90
2023-04-22T04:01:06.650Z,99.90
2023-04-22T04:03:34.876Z,99.90
2023-04-22T04:06:03.327Z,99.90
2023-04-22T04:08:34.018Z,99.90
2023-04-22T04:11:02.002Z,99.90
2023-04-22T04:13:32.351Z,99.90
2023-04-22T04:16:01.088Z,99.90
2023-04-22T04:18:30.659Z,99.90
2023-04-22T04:20:58.827Z,99.90
2023-04-22T04:23:27.158Z,99.90
2023-04-22T04:25:56.632Z,99.90
2023-04-22T04:28:29.695Z,99.90
2023-04-22T04:31:00.546Z,99.90
2023-04-22T04:33:30.022Z,99.90
2023-04-22T04:35:58.331Z,99.90
2023-04-22T04:38:26.690Z,99.90
2023-04-22T04:40:54.744Z,99.90
2023-04-22T04:43:25.824Z,99.90
2023-04-22T04:45:53.968Z,99.90
2023-04-22T04:48:24.923Z,99.90
2023-04-22T04:50:54.702Z,99.90
2023-04-22T04:53:22.804Z,99.90
2023-04-22T04:55:50.855Z,99.90
2023-04-22T04:58:19.008Z,99.90
2023-04-22T05:00:47.061Z,99.90
2023-04-22T05:03:15.140Z,99.90
2023-04-22T05:05:43.397Z,99.90
2023-04-22T05:08:12.724Z,99.90
2023-04-22T05:10:42.894Z,99.90
2023-04-22T05:13:10.882Z,99.90
2023-04-22T05:15:40.910Z,99.90
2023-04-22T05:18:09.662Z,99.90
2023-04-22T05:20:39.373Z,99.90
2023-04-22T05:23:07.510Z,99.90
2023-04-22T05:25:37.165Z,99.90
2023-04-22T05:28:05.259Z,99.90
2023-04-22T05:30:33.207Z,99.90
2023-04-22T05:33:01.326Z,99.90
2023-04-22T05:35:29.387Z,99.90
2023-04-22T05:37:57.486Z,99.90
2023-04-22T05:40:25.477Z,99.90
2023-04-22T05:42:54.851Z,99.90
2023-04-22T05:45:22.894Z,99.90
2023-04-22T05:47:52.240Z,99.90
2023-04-22T05:50:21.314Z,99.90
2023-04-22T05:52:51.542Z,99.90
2023-04-22T05:55:19.690Z,99.90
2023-04-22T05:57:51.505Z,99.90
2023-04-22T06:00:21.002Z,99.90
2023-04-22T06:02:49.709Z,99.90
2023-04-22T06:05:17.970Z,99.90
2023-04-22T06:07:47.188Z,99.90
2023-04-22T06:10:15.249Z,99.90
2023-04-22T06:12:43.272Z,99.90
2023-04-22T06:15:12.166Z,99.90
2023-04-22T06:17:41.550Z,99.90
2023-04-22T06:20:10.317Z,99.90
2023-04-22T06:22:38.440Z,99.90
2023-04-22T06:25:10.753Z,99.90
2023-04-22T06:27:38.860Z,99.90
2023-04-22T06:30:07.501Z,99.90
2023-04-22T06:32:35.741Z,99.90
2023-04-22T06:35:05.789Z,99.90
2023-04-22T06:37:34.496Z,99.90
2023-04-22T06:40:05.364Z,99.90
2023-04-22T06:42:33.416Z,99.90
2023-04-22T06:45:01.540Z,99.90
2023-04-22T06:47:29.639Z,99.90
2023-04-22T06:49:58.104Z,99.90
2023-04-22T06:52:27.525Z,99.90
2023-04-22T06:54:55.699Z,99.90
2023-04-22T06:57:23.720Z,99.90
2023-04-22T06:59:53.361Z,99.90
2023-04-22T07:02:21.718Z,99.90
2023-04-22T07:04:51.780Z,99.90
2023-04-22T07:07:22.441Z,99.90
2023-04-22T07:09:51.848Z,99.90
2023-04-22T07:12:19.904Z,99.90
2023-04-22T07:14:50.841Z,99.90
2023-04-22T07:17:23.522Z,99.90
2023-04-22T07:19:51.589Z,99.90
2023-04-22T07:22:19.616Z,99.90
2023-04-22T07:24:47.672Z,99.90
2023-04-22T07:27:17.323Z,99.90
2023-04-22T07:29:45.502Z,99.90
2023-04-22T07:32:13.695Z,99.90
2023-04-22T07:34:43.504Z,99.90
2023-04-22T07:37:12.176Z,99.90
2023-04-22T07:39:40.403Z,99.90
2023-04-22T07:42:09.706Z,99.90
2023-04-22T07:44:39.637Z,99.90
2023-04-22T07:47:08.726Z,99.90
2023-04-22T07:49:37.077Z,99.90
2023-04-22T07:52:08.326Z,99.90
2023-04-22T07:54:39.310Z,99.90
2023-04-22T07:57:07.300Z,99.90
2023-04-22T07:59:35.327Z,99.90
2023-04-22T08:02:04.864Z,99.90
2023-04-22T08:04:33.079Z,99.90
2023-04-22T08:07:09.201Z,99.90
2023-04-22T08:09:45.472Z,99.90
2023-04-22T08:12:14.450Z,99.90
2023-04-22T08:14:42.452Z,99.90
2023-04-22T08:17:12.955Z,99.90
2023-04-22T08:19:42.329Z,99.90
2023-04-22T08:22:10.335Z,99.90
2023-04-22T08:24:42.417Z,99.90
2023-04-22T08:27:10.416Z,99.90
2023-04-22T08:29:38.885Z,99.90
2023-04-22T08:32:07.192Z,99.90
2023-04-22T08:34:37.177Z,99.90
2023-04-22T08:37:09.183Z,99.90
2023-04-22T08:39:37.513Z,99.90
2023-04-22T08:42:06.206Z,99.90
2023-04-22T08:44:36.155Z,99.90
2023-04-22T08:47:04.543Z,99.90
2023-04-22T08:49:32.805Z,99.90
2023-04-22T08:52:02.221Z,99.90
2023-04-22T08:54:30.236Z,99.90
2023-04-22T08:56:58.352Z,99.90
2023-04-22T08:59:26.557Z,99.90
2023-04-22T09:01:58.364Z,99.90
2023-04-22T09:04:26.576Z,99.90
2023-04-22T09:06:54.667Z,99.90
2023-04-22T09:09:27.453Z,99.90
2023-04-22T09:11:55.464Z,99.90
2023-04-22T09:14:23.692Z,99.90
2023-04-22T09:16:51.723Z,99.90
2023-04-22T09:19:24.797Z,99.90
2023-04-22T09:21:54.391Z,99.90
2023-04-22T09:24:22.700Z,99.90
2023-04-22T09:26:52.120Z,99.90
2023-04-22T09:29:20.360Z,99.90
2023-04-22T09:31:49.586Z,99.90
2023-04-22T09:34:17.679Z,99.90
2023-04-22T09:36:49.340Z,99.90
2023-04-22T09:39:17.351Z,99.90
2023-04-22T09:41:47.400Z,99.90
2023-04-22T09:44:18.046Z,99.90
2023-04-22T09:46:46.217Z,99.90
2023-04-22T09:49:19.416Z,99.90
2023-04-22T09:51:49.350Z,99.90
2023-04-22T09:54:22.323Z,99.90
2023-04-22T09:56:53.160Z,99.90
2023-04-22T09:59:28.486Z,99.90
2023-04-22T10:01:58.021Z,99.90
2023-04-22T10:04:26.190Z,99.90
2023-04-22T10:06:55.083Z,99.90
2023-04-22T10:09:24.156Z,99.90
2023-04-22T10:11:53.970Z,99.90
2023-04-22T10:14:22.361Z,99.90
2023-04-22T10:16:53.157Z,99.90
2023-04-22T10:19:22.421Z,99.90
2023-04-22T10:21:51.779Z,99.90
2023-04-22T10:24:20.627Z,99.90
2023-04-22T10:26:51.256Z,99.90
2023-04-22T10:29:20.418Z,99.90
2023-04-22T10:31:55.544Z,99.90
2023-04-22T10:34:23.541Z,99.90
2023-04-22T10:36:57.618Z,99.90
2023-04-22T10:39:26.114Z,99.90
2023-04-22T10:41:55.552Z,99.90
2023-04-22T10:44:23.973Z,99.90
2023-04-22T10:47:00.498Z,99.90
2023-04-22T10:49:31.965Z,99.90
2023-04-22T10:52:01.062Z,99.90
2023-04-22T10:54:47.668Z,99.90
2023-04-22T10:57:22.830Z,99.90
2023-04-22T10:59:53.472Z,99.90
2023-04-22T11:02:25.249Z,99.90
2023-04-22T11:05:02.099Z,99.90
2023-04-22T11:07:31.994Z,99.90
2023-04-22T11:10:01.228Z,99.90
2023-04-22T11:12:45.064Z,99.90
2023-04-22T11:15:14.048Z,99.90
2023-04-22T11:17:45.102Z,99.90
2023-04-22T11:20:14.285Z,99.90
2023-04-22T11:22:43.388Z,99.90
2023-04-22T11:25:11.806Z,99.90
2023-04-22T11:27:40.884Z,99.90
2023-04-22T11:30:09.707Z,99.90
2023-04-22T11:32:38.732Z,99.90
2023-04-22T11:35:09.362Z,99.90
2023-04-22T11:37:43.446Z,99.90
2023-04-22T11:40:28.918Z,99.90
2023-04-22T11:43:00.252Z,99.90
2023-04-22T11:45:29.502Z,99.90
2023-04-22T11:47:58.319Z,99.90
2023-04-22T11:50:28.918Z,99.90
2023-04-22T11:52:57.615Z,99.90
2023-04-22T11:55:27.286Z,99.90
2023-04-22T11:57:56.938Z,99.90
2023-04-22T12:00:27.570Z,99.90
2023-04-22T12:02:56.454Z,99.90
2023-04-22T12:05:34.993Z,99.90
2023-04-22T12:08:03.720Z,99.90
2023-04-22T12:10:31.861Z,99.90
2023-04-22T12:13:02.533Z,99.90
2023-04-22T12:15:38.835Z,99.90
2023-04-22T12:18:08.054Z,99.90
2023-04-22T12:20:40.068Z,99.90
2023-04-22T12:23:15.327Z,99.90
2023-04-22T12:25:43.780Z,99.90
2023-04-22T12:28:12.200Z,99.90
2023-04-22T12:30:40.668Z,99.90
2023-04-22T12:33:09.442Z,99.90
2023-04-22T12:35:39.079Z,99.90
2023-04-22T12:38:07.089Z,99.90
2023-04-22T12:40:35.156Z,99.90
2023-04-22T12:43:06.057Z,99.90
2023-04-22T12:45:35.786Z,99.90
2023-04-22T12:48:03.926Z,99.90
2023-04-22T12:50:31.979Z,99.90
2023-04-22T12:53:01.465Z,99.90
2023-04-22T12:55:29.599Z,99.90
2023-04-22T12:57:57.793Z,99.90
2023-04-22T13:00:26.122Z,99.90
2023-04-22T13:02:54.271Z,99.90
2023-04-22T13:05:22.414Z,99.90
2023-04-22T13:07:59.572Z,99.90
2023-04-22T13:10:33.476Z,99.90
2023-04-22T13:13:16.733Z,99.90
2023-04-22T13:15:46.248Z,99.90
2023-04-22T13:18:14.279Z,99.90
2023-04-22T13:20:42.777Z,99.90
2023-04-22T13:23:12.021Z,99.90
2023-04-22T13:25:41.501Z,99.90
2023-04-22T13:28:12.570Z,99.90
2023-04-22T13:30:40.906Z,99.90
2023-04-22T13:33:08.946Z,99.90
2023-04-22T13:35:46.590Z,99.90
2023-04-22T13:38:14.654Z,99.90
2023-04-22T13:40:44.064Z,99.90
2023-04-22T13:43:12.713Z,99.90
2023-04-22T13:45:42.288Z,99.90
2023-04-22T13:48:10.384Z,99.90
2023-04-22T13:50:40.622Z,99.90
2023-04-22T13:53:10.147Z,99.90
2023-04-22T13:55:38.352Z,99.90
2023-04-22T13:58:08.303Z,99.90
2023-04-22T14:00:36.548Z,99.90
2023-04-22T14:03:04.747Z,99.90
2023-04-22T14:05:33.007Z,99.90
2023-04-22T14:08:01.170Z,99.90
2023-04-22T14:10:29.232Z,99.90
2023-04-22T14:13:00.271Z,99.50
2023-04-22T14:15:29.652Z,99.10
2023-04-22T14:17:57.693Z,98.40
2023-04-22T14:20:26.276Z,99.30
2023-04-22T14:22:56.004Z,97.20
2023-04-22T14:25:24.057Z,95.60
2023-04-22T14:27:52.050Z,97.40
2023-04-22T14:30:21.739Z,95.10
2023-04-22T14:32:54.154Z,94.40
2023-04-22T14:35:22.443Z,96.10
2023-04-22T14:37:50.485Z,95.40
2023-04-22T14:40:20.008Z,96.20
2023-04-22T14:42:48.084Z,96.80
2023-04-22T14:45:16.034Z,97.80
2023-04-22T14:47:44.068Z,97.50
2023-04-22T14:50:13.523Z,97.60
2023-04-22T14:52:41.769Z,98.60
2023-04-22T14:55:22.022Z,96.50
2023-04-22T14:57:51.564Z,97.80
2023-04-22T15:00:19.796Z,95.40
2023-04-22T15:02:48.032Z,94.00
2023-04-22T15:05:17.611Z,93.60
2023-04-22T15:07:45.826Z,93.00
2023-04-22T15:10:14.356Z,93.00
2023-04-22T15:12:42.339Z,92.20
2023-04-22T15:15:13.203Z,92.00
2023-04-22T15:17:41.809Z,92.50
2023-04-22T15:20:12.202Z,94.10
2023-04-22T15:22:42.014Z,93.20
2023-04-22T15:25:10.696Z,93.90
2023-04-22T15:27:39.361Z,94.10
2023-04-22T15:30:08.022Z,94.10
2023-04-22T15:32:36.145Z,94.90
2023-04-22T15:35:04.290Z,95.30
2023-04-22T15:37:32.314Z,95.10
2023-04-22T15:40:01.710Z,95.30
2023-04-22T15:42:29.769Z,95.70
2023-04-22T15:44:57.788Z,96.00
2023-04-22T15:47:25.879Z,96.30
2023-04-22T15:49:55.812Z,96.70
2023-04-22T15:52:24.359Z,96.90
2023-04-22T15:54:52.429Z,97.10
2023-04-22T15:57:25.012Z,97.10
2023-04-22T16:00:07.004Z,97.40
2023-04-22T16:02:38.991Z,97.80
2023-04-22T16:05:07.454Z,98.00
2023-04-22T16:07:35.519Z,98.70
2023-04-22T16:10:03.684Z,99.90
2023-04-22T16:12:34.440Z,99.90
2023-04-22T16:15:02.802Z,99.90
2023-04-22T16:17:30.995Z,99.90
2023-04-22T16:20:02.422Z,99.90
2023-04-22T16:22:30.552Z,99.90
2023-04-22T16:24:59.766Z,99.90
2023-04-22T16:27:28.018Z,99.90
2023-04-22T16:29:57.389Z,99.90
2023-04-22T16:32:25.776Z,99.90
2023-04-22T16:34:53.874Z,99.90
2023-04-22T16:37:21.983Z,99.90
2023-04-22T16:39:50.608Z,99.90
2023-04-22T16:42:20.551Z,99.90
2023-04-22T16:44:48.598Z,99.90
2023-04-22T16:47:18.057Z,99.90
2023-04-22T16:49:46.228Z,99.90
2023-04-22T16:52:14.294Z,99.90
2023-04-22T16:54:42.751Z,99.90
2023-04-22T16:57:12.634Z,99.90
2023-04-22T16:59:43.255Z,99.90
2023-04-22T17:02:11.772Z,99.90
2023-04-22T17:04:41.245Z,99.90
2023-04-22T17:07:09.237Z,99.90
2023-04-22T17:09:37.330Z,99.90
2023-04-22T17:12:06.205Z,99.90
2023-04-22T17:14:34.213Z,99.90
2023-04-22T17:17:02.341Z,99.90
2023-04-22T17:19:33.255Z,99.90
2023-04-22T17:22:03.996Z,99.90
2023-04-22T17:24:32.076Z,99.90
2023-04-22T17:27:00.146Z,99.90
2023-04-22T17:29:28.296Z,99.90
2023-04-22T17:31:56.275Z,99.90
2023-04-22T17:34:24.346Z,99.90
2023-04-22T17:36:52.814Z,99.90
2023-04-22T17:39:22.187Z,99.90
2023-04-22T17:41:50.410Z,99.90
2023-04-22T17:44:18.474Z,99.90
2023-04-22T17:46:46.615Z,99.90
2023-04-22T17:49:14.661Z,99.90
2023-04-22T17:51:43.065Z,99.90
2023-04-22T17:54:11.349Z,99.90
2023-04-22T17:56:40.815Z,99.90
2023-04-22T17:59:11.261Z,99.90
2023-04-22T18:01:39.860Z,99.90
2023-04-22T18:04:08.132Z,99.90
2023-04-22T18:06:36.467Z,99.90
2023-04-22T18:09:04.563Z,99.90
2023-04-22T18:11:32.712Z,99.90
2023-04-22T18:14:02.418Z,99.90
2023-04-22T18:16:30.480Z,99.90
2023-04-22T18:18:59.790Z,99.90
2023-04-22T18:21:29.405Z,99.90
2023-04-22T18:23:57.737Z,99.90
2023-04-22T18:26:27.658Z,99.90
2023-04-22T18:28:55.767Z,99.90
2023-04-22T18:31:25.194Z,99.90
2023-04-22T18:33:53.225Z,99.90
2023-04-22T18:36:21.489Z,99.90
2023-04-22T18:38:53.752Z,99.90
2023-04-22T18:41:21.790Z,99.90
2023-04-22T18:43:49.806Z,99.90
2023-04-22T18:46:17.927Z,99.90
2023-04-22T18:48:47.449Z,99.90
2023-04-22T18:51:15.515Z,99.90
2023-04-22T18:53:43.501Z,99.90
2023-04-22T18:56:11.566Z,99.90
2023-04-22T18:58:39.615Z,99.90
2023-04-22T19:01:08.296Z,99.90
2023-04-22T19:03:36.703Z,99.90
2023-04-22T19:06:06.893Z,99.90
2023-04-22T19:08:35.002Z,99.90
2023-04-22T19:11:05.339Z,99.90
2023-04-22T19:13:33.581Z,99.90
2023-04-22T19:16:01.837Z,99.90
2023-04-22T19:18:35.155Z,99.90
2023-04-22T19:21:03.465Z,99.90
2023-04-22T19:23:32.900Z,99.90
2023-04-22T19:26:01.137Z,99.90
2023-04-22T19:28:29.230Z,99.90
2023-04-22T19:30:59.427Z,99.90
2023-04-22T19:33:27.872Z,99.90
2023-04-22T19:35:56.161Z,99.90
2023-04-22T19:38:24.253Z,99.90
2023-04-22T19:40:53.756Z,99.90
2023-04-22T19:43:22.348Z,99.90
2023-04-22T19:45:50.372Z,99.90
2023-04-22T19:48:18.758Z,99.90
2023-04-22T19:50:47.016Z,99.90
2023-04-22T19:53:15.966Z,99.90
2023-04-22T19:55:44.610Z,99.90
2023-04-22T19:58:14.428Z,99.90
2023-04-22T20:00:43.061Z,99.90
2023-04-22T20:03:13.215Z,99.90
2023-04-22T20:05:41.844Z,99.90
2023-04-22T20:08:09.952Z,99.90
2023-04-22T20:10:38.193Z,99.90
2023-04-22T20:13:06.491Z,99.90
2023-04-22T20:15:36.189Z,99.90
2023-04-22T20:18:04.580Z,99.90
2023-04-22T20:20:32.861Z,99.90
2023-04-22T20:23:02.217Z,99.90
2023-04-22T20:25:31.072Z,99.90
2023-04-22T20:27:59.650Z,99.90
2023-04-22T20:30:27.950Z,99.90
2023-04-22T20:33:00.229Z,99.90
2023-04-22T20:35:28.481Z,99.90
2023-04-22T20:37:59.181Z,99.90
2023-04-22T20:40:28.692Z,99.90
2023-04-22T20:42:58.642Z,99.90
2023-04-22T20:45:27.406Z,99.90
2023-04-22T20:47:57.969Z,99.90
2023-04-22T20:50:33.023Z,99.90
2023-04-22T20:53:01.287Z,99.90
2023-04-22T20:55:29.299Z,99.90
2023-04-22T20:57:57.348Z,99.90
2023-04-22T21:00:25.519Z,99.90
2023-04-22T21:02:53.933Z,99.90
2023-04-22T21:05:22.603Z,99.90
2023-04-22T21:07:53.078Z,99.90
2023-04-22T21:10:21.464Z,99.90
2023-04-22T21:12:49.838Z,99.90
2023-04-22T21:15:18.286Z,99.90
2023-04-22T21:17:51.714Z,99.90
2023-04-22T21:20:20.647Z,99.90
2023-04-22T21:22:49.157Z,99.90
2023-04-22T21:25:21.508Z,99.90
2023-04-22T21:27:49.876Z,99.90
2023-04-22T21:30:18.326Z,99.90
2023-04-22T21:32:46.382Z,99.90
2023-04-22T21:35:14.762Z,99.90
2023-04-22T21:37:42.820Z,99.90
2023-04-22T21:40:12.935Z,99.90
2023-04-22T21:42:42.377Z,99.90
2023-04-22T21:45:10.840Z,99.90
2023-04-22T21:47:38.877Z,99.90
2023-04-22T21:50:07.709Z,99.90
2023-04-22T21:52:35.794Z,99.90
2023-04-22T21:55:04.111Z,99.90
2023-04-22T21:57:32.138Z,99.90
2023-04-22T22:00:04.447Z,99.90
2023-04-22T22:02:33.981Z,99.90
2023-04-22T22:05:02.091Z,99.90
2023-04-22T22:07:30.523Z,99.90
2023-04-22T22:09:58.540Z,99.90
2023-04-22T22:12:26.889Z,99.90
2023-04-22T22:14:58.088Z,99.90
2023-04-22T22:17:27.750Z,99.90
2023-04-22T22:19:57.088Z,99.90
2023-04-22T22:22:25.156Z,99.90
2023-04-22T22:24:53.383Z,99.90
2023-04-22T22:27:21.864Z,99.90
2023-04-22T22:29:51.172Z,99.90
2023-04-22T22:32:19.218Z,99.90
2023-04-22T22:34:48.539Z,99.90
2023-04-22T22:37:19.067Z,99.90
2023-04-22T22:39:47.186Z,99.90
2023-04-22T22:42:15.660Z,99.90
2023-04-22T22:44:43.896Z,99.90
2023-04-22T22:47:12.044Z,99.90
2023-04-22T22:49:40.789Z,99.90
2023-04-22T22:52:10.267Z,99.90
2023-04-22T22:54:38.884Z,99.90
2023-04-22T22:57:12.528Z,99.90
2023-04-22T22:59:42.478Z,99.90
2023-04-22T23:02:10.646Z,99.90
2023-04-22T23:04:39.480Z,99.90
2023-04-22T23:07:07.723Z,99.90
2023-04-22T23:09:37.161Z,99.90
2023-04-22T23:12:05.588Z,99.90
2023-04-22T23:14:33.805Z,99.90
2023-04-22T23:17:03.812Z,99.90
2023-04-22T23:19:31.986Z,99.90
2023-04-22T23:22:00.973Z,99.90
2023-04-22T23:24:29.246Z,99.90
2023-04-22T23:26:58.959Z,99.90
2023-04-22T23:29:33.545Z,99.90
2023-04-22T23:32:03.514Z,99.90
2023-04-22T23:34:33.619Z,99.90
2023-04-22T23:37:05.247Z,99.90
2023-04-22T23:39:35.473Z,99.90
2023-04-22T23:42:04.920Z,99.90
2023-04-22T23:44:32.932Z,99.90
2023-04-22T23:47:00.906Z,99.90
2023-04-22T23:49:29.617Z,99.90
2023-04-22T23:51:57.750Z,99.90
2023-04-22T23:54:26.283Z,99.90
2023-04-22T23:56:54.697Z,99.90
2023-04-22T23:59:24.456Z,99.90
